Flight Track Log - Related Links

Times and Time Zones

All times are in EDT time to prevent confusion due to time zone crossing. See the ASA525 flight status page for this flight to view local times or setup timezone preferences in your user account.


Time Position Orientation Groundspeed Altitude Reporting Facility
EDT Latitude Longitude Course Direction KTS MPH feet Rate Location/Type
Wed 02:03:21 PM 34.1803 -118.3539 223° Southwest 161 185 34,000  Level Los Angeles Center
Wed 02:04:23 PM 34.1381 -118.4014 223° Southwest 222 255 4,200 -13,306 Descending Los Angeles Center
Wed 02:05:25 PM 34.1781 -118.4592 310° West 251 289 6,500 2,400 Climbing Los Angeles Center
Wed 02:06:28 PM 34.2572 -118.4772 349° North 290 334 9,200 3,264 Climbing Los Angeles Center
Wed 02:07:30 PM 34.3339 -118.5050 343° North 289 333 13,300 3,242 Climbing Los Angeles Center
Wed 02:08:32 PM 34.4025 -118.5575 328° Northwest 294 338 15,900 1,790 Climbing Los Angeles Center
Wed 02:09:34 PM 34.4781 -118.6153 328° Northwest 319 367 17,000 532 Climbing Los Angeles Center
Wed 02:10:36 PM 34.5678 -118.6819 329° Northwest 317 365 17,000 629 Level Los Angeles Center
Wed 02:11:38 PM 34.6447 -118.7403 328° Northwest 330 380 18,300 1,210 Climbing Los Angeles Center
Wed 02:12:40 PM 34.7375 -118.8125 327° Northwest 395 455 19,500 1,742 Climbing Los Angeles Center
Wed 02:13:42 PM 34.8433 -118.8769 333° Northwest 425 489 21,900 2,371 Climbing Los Angeles Center
Wed 02:14:44 PM 34.9667 -118.9250 342° North 440 506 24,400 2,064 Climbing Los Angeles Center
Wed 02:15:47 PM 35.0869 -118.9722 342° North 452 520 26,200 1,680 Climbing Los Angeles Center
Wed 02:16:49 PM 35.2131 -119.0200 343° North 473 544 27,900 871 Climbing Los Angeles Center
Wed 02:17:51 PM 35.3628 -119.0772 343° North 472 543 28,000 1,016 Climbing Los Angeles Center
Wed 02:18:53 PM 35.4856 -119.1256 342° North 467 537 30,000 1,853 Climbing Los Angeles Center
Wed 02:20:07 PM 35.6044 -119.1722 342° North 454 522 32,200 2,040 Climbing Los Angeles Center
Wed 02:20:33 PM 35.6719 -119.1900 348° North 448 516 33,400 1,241 Climbing Oakland Center
Wed 02:21:34 PM 35.7922 -119.2247 347° North 446 513 34,000 293 Climbing Oakland Center
Wed 02:22:36 PM 35.9342 -119.2681 346° North 442 509 34,000  Level Oakland Center
Wed 02:23:37 PM 36.0531 -119.3022 347° North 440 506 34,000  Level Oakland Center
Wed 02:24:39 PM 36.1697 -119.3375 346° North 433 498 34,000  Level Oakland Center
Wed 02:25:41 PM 36.2872 -119.3719 347° North 435 501 34,000  Level Oakland Center
Wed 02:26:42 PM 36.4036 -119.4058 347° North 432 497 34,000  Level Oakland Center
Wed 02:27:44 PM 36.5200 -119.4397 347° North 432 497 34,000  Level Oakland Center
Wed 02:28:46 PM 36.6372 -119.4744 347° North 434 499 34,000  Level Oakland Center
Wed 02:29:47 PM 36.7783 -119.5164 347° North 435 501 34,000  Level Oakland Center
Wed 02:30:49 PM 36.8961 -119.5508 347° North 434 499 34,000  Level Oakland Center
Wed 02:31:51 PM 37.0119 -119.5875 346° North 431 496 34,000  Level Oakland Center
Wed 02:32:52 PM 37.1283 -119.6222 347° North 432 497 34,000  Level Oakland Center
Wed 02:33:54 PM 37.2431 -119.6567 347° North 427 491 34,000  Level Oakland Center
Wed 02:34:56 PM 37.3694 -119.6944 347° North 426 490 34,000  Level Oakland Center
Wed 02:35:57 PM 37.4847 -119.7294 346° North 426 490 34,000  Level Oakland Center
Wed 02:36:59 PM 37.5997 -119.7647 346° North 424 488 34,000  Level Oakland Center
Wed 02:38:00 PM 37.7133 -119.7981 347° North 420 483 34,000  Level Oakland Center
Wed 02:39:02 PM 37.8283 -119.8331 346° North 423 487 34,000  Level Oakland Center
Wed 02:40:04 PM 37.9656 -119.8753 346° North 425 489 34,000  Level Oakland Center
Wed 02:41:05 PM 38.0822 -119.9111 346° North 430 495 34,000  Level Oakland Center
Wed 02:42:07 PM 38.1947 -119.9475 346° North 422 486 34,000  Level Oakland Center
Wed 02:43:08 PM 38.3092 -119.9833 346° North 422 486 34,000  Level Oakland Center
Wed 02:44:10 PM 38.4239 -120.0178 347° North 425 489 34,000  Level Oakland Center
Wed 02:45:11 PM 38.5389 -120.0539 346° North 427 491 34,000  Level Oakland Center
Wed 02:46:13 PM 38.6511 -120.0906 346° North 422 486 34,000  Level Oakland Center
Wed 02:47:14 PM 38.7642 -120.1261 346° North 419 482 34,000  Level Oakland Center
Wed 02:48:16 PM 38.8992 -120.1683 346° North 419 482 34,000  Level Oakland Center
Wed 02:49:18 PM 39.0133 -120.2056 346° North 424 488 34,000  Level Oakland Center
Wed 02:50:19 PM 39.1281 -120.2408 347° North 425 489 34,000  Level Oakland Center
Wed 02:51:21 PM 39.2417 -120.2781 346° North 424 488 34,000  Level Oakland Center
Wed 02:52:22 PM 39.3533 -120.3131 346° North 418 481 34,000  Level Oakland Center
Wed 02:53:24 PM 39.4653 -120.3483 346° North 416 479 34,000  Level Oakland Center
Wed 02:54:25 PM 39.5769 -120.3856 346° North 415 478 34,000  Level Oakland Center
Wed 02:55:27 PM 39.7122 -120.4300 346° North 419 482 34,000  Level Oakland Center
Wed 02:56:28 PM 39.8236 -120.4656 346° North 414 476 34,000  Level Oakland Center
Wed 02:57:30 PM 39.9358 -120.5025 346° North 417 480 34,000  Level Oakland Center
Wed 02:58:31 PM 40.0497 -120.5403 346° North 416 479 34,000  Level Oakland Center
Wed 02:59:33 PM 40.1617 -120.5753 347° North 416 479 34,000  Level Oakland Center
Wed 03:00:34 PM 40.2731 -120.6119 346° North 415 478 34,000  Level Oakland Center
Wed 03:01:36 PM 40.3842 -120.6494 346° North 414 476 34,000  Level Oakland Center
Wed 03:02:37 PM 40.4950 -120.6844 346° North 413 475 34,000  Level Oakland Center
Wed 03:03:38 PM 40.6089 -120.7231 346° North 417 480 34,000  Level Oakland Center
Wed 03:04:32 PM 40.7194 -120.7617 345° North 411 473 34,000  Level Seattle Center
Wed 03:05:34 PM 40.8317 -120.7958 347° North 412 474 34,000  Level Seattle Center
Wed 03:06:35 PM 40.9447 -120.8364 345° North 412 474 34,000  Level Seattle Center
Wed 03:07:36 PM 41.0511 -120.8733 345° North 409 471 34,000  Level Seattle Center
Wed 03:08:37 PM 41.1625 -120.9108 346° North 412 474 34,000  Level Seattle Center
Wed 03:09:38 PM 41.2725 -120.9494 345° North 410 472 34,000  Level Seattle Center
Wed 03:10:40 PM 41.3831 -120.9872 346° North 411 473 34,000  Level Seattle Center
Wed 03:11:41 PM 41.5156 -121.0325 346° North 410 472 34,000  Level Seattle Center
Wed 03:12:42 PM 41.6264 -121.0708 346° North 412 474 34,000  Level Seattle Center
Wed 03:13:43 PM 41.7364 -121.1100 345° North 411 473 34,000  Level Seattle Center
Wed 03:14:44 PM 41.8472 -121.1475 346° North 411 473 34,000  Level Seattle Center
Wed 03:15:46 PM 41.9564 -121.1856 345° North 409 471 34,000  Level Seattle Center
Wed 03:16:47 PM 42.0653 -121.2242 345° North 407 468 34,000  Level Seattle Center
Wed 03:17:48 PM 42.1756 -121.2633 345° North 413 475 34,000  Level Seattle Center
Wed 03:18:49 PM 42.2861 -121.3006 346° North 414 476 34,000  Level Seattle Center
Wed 03:19:50 PM 42.4200 -121.3478 345° North 416 479 34,000  Level Seattle Center
Wed 03:20:51 PM 42.5314 -121.3875 345° North 416 479 34,000  Level Seattle Center
Wed 03:21:53 PM 42.6414 -121.4272 345° North 412 474 34,000  Level Seattle Center
Wed 03:22:54 PM 42.7531 -121.4656 346° North 414 476 34,000  Level Seattle Center
Wed 03:23:55 PM 42.8633 -121.5058 345° North 411 473 34,000  Level Seattle Center
Wed 03:24:56 PM 42.9742 -121.5450 346° North 412 474 34,000  Level Seattle Center
Wed 03:25:57 PM 43.0853 -121.5847 345° North 413 475 34,000  Level Seattle Center
Wed 03:26:58 PM 43.1961 -121.6250 345° North 413 475 34,000  Level Seattle Center
Wed 03:27:59 PM 43.3069 -121.6667 345° North 414 476 34,000  Level Seattle Center
Wed 03:29:01 PM 43.4181 -121.7072 345° North 414 476 34,000  Level Seattle Center
Wed 03:30:02 PM 43.5506 -121.7550 345° North 412 474 34,000  Level Seattle Center
Wed 03:31:03 PM 43.6617 -121.7961 345° North 414 476 34,000  Level Seattle Center
Wed 03:32:04 PM 43.7725 -121.8367 345° North 412 474 34,000  Level Seattle Center
Wed 03:33:05 PM 43.8747 -121.8733 346° North 415 478 34,000  Level Seattle Center
Wed 03:34:06 PM 44.0017 -121.9217 345° North 412 474 34,000  Level Seattle Center
Wed 03:35:07 PM 44.1117 -121.9628 345° North 411 473 34,000  Level Seattle Center
Wed 03:36:09 PM 44.2208 -122.0039 345° North 408 470 34,000  Level Seattle Center
Wed 03:37:10 PM 44.3308 -122.0436 346° North 408 470 34,000  Level Seattle Center
Wed 03:38:11 PM 44.4397 -122.0850 345° North 408 470 34,000  Level Seattle Center
Wed 03:39:12 PM 44.5500 -122.1269 345° North 410 472 34,000  Level Seattle Center
Wed 03:40:13 PM 44.6597 -122.1692 345° North 412 474 34,000  Level Seattle Center
Wed 03:41:14 PM 44.7689 -122.2111 345° North 408 470 34,000  Level Seattle Center
Wed 03:42:16 PM 44.8786 -122.2528 345° North 411 473 34,000  Level Seattle Center
Wed 03:43:17 PM 45.0108 -122.3036 345° North 413 475 34,000  Level Seattle Center
Wed 03:44:18 PM 45.1206 -122.3444 345° North 411 473 34,000  Level Seattle Center
Wed 03:45:19 PM 45.2294 -122.3881 344° North 410 472 34,000  Level Seattle Center
Wed 03:46:20 PM 45.3381 -122.4294 345° North 407 468 34,000  Level Seattle Center
Wed 03:47:21 PM 45.4483 -122.4731 344° North 411 473 34,000  Level Seattle Center
Wed 03:48:22 PM 45.5572 -122.5150 345° North 409 471 34,000  Level Seattle Center
Wed 03:49:23 PM 45.6664 -122.5583 344° North 408 470 34,000 -439 Level Seattle Center
Wed 03:50:25 PM 45.7767 -122.5992 346° North 412 474 33,100 -927 Descending Seattle Center
Wed 03:51:26 PM 45.8875 -122.6239 351° North 406 467 32,100 -1,426 Descending Seattle Center
Wed 03:52:27 PM 46.0178 -122.6572 350° North 399 459 30,200 -2,066 Descending Seattle Center
Wed 03:53:28 PM 46.1208 -122.6817 351° North 380 437 27,900 -2,115 Descending Seattle Center
Wed 03:54:29 PM 46.2111 -122.6986 353° North 372 428 25,900 -2,066 Descending Seattle Center
Wed 03:55:30 PM 46.3072 -122.7169 352° North 355 409 23,700 -2,262 Descending Seattle Center
Wed 03:56:31 PM 46.4208 -122.7161 360° North 344 396 21,300 -1,820 Descending Seattle Center
Wed 03:57:32 PM 46.5103 -122.7164 360° North 328 377 20,000 -1,475 Descending Seattle Center
Wed 03:58:33 PM 46.5906 -122.7133 North 296 341 18,300 -1,317 Descending Seattle Center
Wed 03:59:35 PM 46.6583 -122.7728 329° Northwest 289 333 17,300 -1,463 Descending Seattle Center
Wed 03:59:55 PM 46.6875 -122.7778 353° North 279 321 16,300 -2,105 Descending Seattle Center
Wed 04:00:32 PM 46.7336 -122.7497 23° Northeast 292 336 15,300 -1,588 Descending Seattle Center
Wed 04:01:37 PM 46.8042 -122.7094 21° North 283 326 13,600 -1,983 Descending Seattle Center
Wed 04:02:33 PM 46.8689 -122.6353 38° Northeast 285 328 11,300 -1,897 Descending Seattle Center
Wed 04:03:34 PM 46.9283 -122.5544 43° Northeast 271 312 9,900 -1,377 Descending Seattle Center
Wed 04:04:35 PM 46.9803 -122.4875 41° Northeast 254 292 8,500 -1,034 Descending Seattle Center
Wed 04:05:30 PM 47.0317 -122.4367 34° Northeast 236 272 7,900 -709 Descending Seattle Center
Wed 04:06:25 PM 47.0814 -122.3967 29° Northeast 212 244 7,200 -750 Descending Seattle Center
Wed 04:06:42 PM 47.0908 -122.3881 32° Northeast 218 251 7,000 -1,082 Descending Seattle Center
Wed 04:07:26 PM 47.1353 -122.3542 27° Northeast 218 251 6,100 -1,082 Descending Seattle Center
Wed 04:07:43 PM 47.1450 -122.3464 29° Northeast 223 257 5,900 -984 Descending Seattle Center
Wed 04:08:27 PM 47.1942 -122.3156 23° Northeast 232 267 5,100 -885 Descending Seattle Center
Wed 04:08:44 PM 47.2039 -122.3100 21° North 230 265 5,000 -677 Descending Seattle Center
Wed 04:09:29 PM 47.2542 -122.3153 356° North 211 243 4,400 -885 Descending Seattle Center
Wed 04:09:45 PM 47.2625 -122.3133 North 213 245 4,100 -1,364 Descending Seattle Center
Wed 04:10:35 PM 47.3153 -122.3108 North 185 213 2,900 -1,131 Descending Seattle Center
Wed 04:11:47 PM 47.3622 -122.3122 359° North 140 161 1,800 -767 Descending Seattle Center
Wed 04:12:48 PM 47.3983 -122.3119 360° North 133 153 1,200 -629 Descending Seattle Center
Wed 04:13:32 PM 47.4247 -122.3128 359° North 132 152 700 -787 Descending Seattle Center
Wed 04:13:49 PM 47.4369 -122.3114 North 131 151 400 -308 Descending Seattle Center
Wed 04:14:50 PM 47.4694 -122.3108 North 130 150 300 -98 Descending Seattle Center
Wed 04:16:00 PM 47.4499 -122.3118 132° Southeast  Level Estimated

Login

Don't have an account? Register now (free) for customized features, flight alerts, and more!